메인 페이지
METAR-TAF:

METAR-TAF

공항 :

무안국제공항

광주광역, 대한민국

위도: 34-59-29N, 경도: 126-22-58E, 고도: 16m

현재 날씨관측

예보는 54분 전, 08:00시(UTC)에 발표되었습니다.
7kt
온도 20°C
습도 64%
기압 1016 hPa
시정 10km 이상
고도 3000ft 상공 구름 많음
고도 16000ft 상공 구름 많음

METAR: RKJB 210800Z 01007KT 9999 BKN030 BKN160 20/13 Q1016 NOSIG

시각: 17:54 (08:54 UTC)

예보

예보는 54분 전, 08:00시(UTC)에 발표되었습니다.
예보 대상 시간: 21일 08시부터 22일 12시까지 (UTC)
남남서7kt
시정 10km 이상
고도 3000ft 상공 구름 많음
고도 16000ft 상공 구름 많음
전환 중
21일 12시부터 21일 13시까지 (UTC)
7kt
고도 3000ft 상공 구름 보통
고도 16000ft 상공 구름 많음
전환 중
22일 01시부터 22일 02시까지 (UTC)
남남동10kt
전환 중
22일 05시부터 22일 06시까지 (UTC)
고도 1000ft 상공 구름 조금
고도 2500ft 상공 구름 보통
고도 10000ft 상공 흐림
전환 중
22일 10시부터 22일 11시까지 (UTC)
약한비

TAF: RKJB 210800Z 2108/2212 20007KT 9999 BKN030 BKN160 TN14/2121Z TX24/2205Z BECMG 2112/2113 09007KT SCT030 BKN160 BECMG 2201/2202 16010KT BECMG 2205/2206 FEW010 SCT025 OVC100 BECMG 2210/2211 -RA

4,000개 이상의 공항 관측 자료 및 예보 (METAR 및 TAF 보고).

지도상에서 검색 가능한 기상관측소가 노란 점과 빨간 점으로 표시되어 있습니다.

기상관측소 명을 보려면 표시 위로 마우스를 이동하세요.

날씨 관측과 예보를 보려면 클릭하세요.

지도 변경 : 확대하려면 엑스 표시가 있는 녹색 버튼, 축소하려면 빼기 표시가 있는 녹색 버튼, 다음 페이지의 지도를 보려면 녹색 화살표를 클릭하세요.


METAR-TAF: